createdAt,value
2022-09-10T00:01:17.409Z,10.88
2022-09-10T00:03:44.065Z,6.90
2022-09-10T00:06:12.014Z,7.43
2022-09-10T00:08:39.566Z,9.27
2022-09-10T00:11:10.187Z,7.35
2022-09-10T00:13:39.519Z,6.72
2022-09-10T00:16:09.670Z,8.57
2022-09-10T00:18:37.147Z,9.52
2022-09-10T00:21:07.324Z,13.77
2022-09-10T00:23:34.747Z,11.15
2022-09-10T00:26:12.343Z,8.38
2022-09-10T00:28:40.024Z,11.20
2022-09-10T00:31:07.273Z,12.00
2022-09-10T00:33:34.331Z,9.77
2022-09-10T00:36:01.368Z,11.00
2022-09-10T00:38:30.256Z,9.48
2022-09-10T00:41:03.843Z,10.98
2022-09-10T00:44:03.117Z,11.80
2022-09-10T00:49:15.258Z,12.73
2022-09-10T00:51:43.757Z,10.70
2022-09-10T00:54:11.636Z,11.98
2022-09-10T00:56:39.391Z,13.43
2022-09-10T00:59:09.937Z,13.02
2022-09-10T01:01:39.122Z,10.65
2022-09-10T01:04:07.872Z,10.57
2022-09-10T01:06:35.503Z,15.35
2022-09-10T01:09:03.266Z,13.38
2022-09-10T01:14:39.862Z,11.90
2022-09-10T01:17:46.580Z,10.52
2022-09-10T01:26:25.633Z,10.57
2022-09-10T01:29:01.214Z,10.95
2022-09-10T01:34:16.834Z,12.25
2022-09-10T01:36:48.651Z,10.82
2022-09-10T01:39:21.065Z,12.45
2022-09-10T01:41:48.924Z,11.20
2022-09-10T01:44:52.785Z,12.30
2022-09-10T01:47:51.279Z,10.50
2022-09-10T02:04:02.212Z,12.15
2022-09-10T02:06:34.803Z,14.10
2022-09-10T02:09:02.717Z,9.45
2022-09-10T02:11:30.358Z,12.95
2022-09-10T02:13:58.551Z,9.65
2022-09-10T02:16:31.506Z,11.57
2022-09-10T02:19:00.859Z,10.25
2022-09-10T02:21:28.020Z,8.68
2022-09-10T02:23:59.457Z,10.25
2022-09-10T02:26:27.061Z,10.20
2022-09-10T02:28:54.862Z,11.27
2022-09-10T02:31:22.057Z,9.68
2022-09-10T02:33:48.618Z,8.48
2022-09-10T02:36:15.117Z,8.48
2022-09-10T02:38:41.669Z,6.60
2022-09-10T02:41:09.430Z,8.48
2022-09-10T02:43:38.120Z,7.32
2022-09-10T02:46:08.831Z,7.55
2022-09-10T02:48:35.377Z,8.27
2022-09-10T02:51:02.755Z,9.73
2022-09-10T02:53:31.652Z,6.90
2022-09-10T02:55:58.531Z,11.13
2022-09-10T02:58:25.120Z,8.98
2022-09-10T03:00:51.757Z,11.05
2022-09-10T03:03:18.427Z,10.75
2022-09-10T03:05:45.347Z,10.82
2022-09-10T03:08:12.036Z,12.27
2022-09-10T03:10:39.305Z,13.15
2022-09-10T03:13:05.833Z,14.85
2022-09-10T03:15:32.417Z,13.18
2022-09-10T03:17:58.948Z,15.88
2022-09-10T03:20:25.933Z,12.13
2022-09-10T03:22:52.505Z,12.80
2022-09-10T03:25:19.669Z,11.23
2022-09-10T03:27:46.204Z,17.08
2022-09-10T03:30:13.150Z,11.35
2022-09-10T03:32:39.722Z,13.95
2022-09-10T03:35:06.729Z,12.25
2022-09-10T03:37:33.430Z,13.38
2022-09-10T03:40:00.588Z,10.70
2022-09-10T03:42:27.184Z,15.02
2022-09-10T03:44:54.089Z,12.80
2022-09-10T03:47:20.599Z,14.40
2022-09-10T03:49:47.120Z,19.13
2022-09-10T03:52:13.655Z,10.43
2022-09-10T03:54:40.210Z,17.50
2022-09-10T03:57:06.920Z,15.27
2022-09-10T03:59:33.451Z,12.48
2022-09-10T04:02:00.091Z,12.13
2022-09-10T04:04:26.974Z,15.13
2022-09-10T04:06:53.969Z,11.77
2022-09-10T04:09:20.517Z,17.13
2022-09-10T04:11:47.254Z,10.30
2022-09-10T04:14:14.018Z,14.55
2022-09-10T04:16:40.694Z,14.23
2022-09-10T04:19:07.548Z,12.05
2022-09-10T04:21:34.088Z,14.63
2022-09-10T04:24:00.839Z,9.73
2022-09-10T04:26:27.492Z,9.77
2022-09-10T04:28:54.043Z,12.57
2022-09-10T04:31:20.755Z,12.77
2022-09-10T04:33:47.306Z,10.13
2022-09-10T04:36:14.631Z,8.55
2022-09-10T04:38:42.163Z,8.82
2022-09-10T04:41:09.574Z,8.45
2022-09-10T04:43:37.936Z,11.05
2022-09-10T04:46:04.621Z,9.07
2022-09-10T04:48:33.152Z,16.00
2022-09-10T04:51:15.821Z,9.80
2022-09-10T04:53:43.424Z,11.40
2022-09-10T04:56:10.314Z,8.73
2022-09-10T04:58:39.141Z,12.40
2022-09-10T05:01:06.648Z,8.52
2022-09-10T05:03:33.595Z,8.70
2022-09-10T05:06:00.388Z,9.65
2022-09-10T05:08:26.972Z,7.95
2022-09-10T05:10:53.477Z,8.77
2022-09-10T05:13:20.019Z,6.32
2022-09-10T05:15:46.555Z,12.00
2022-09-10T05:18:13.144Z,10.60
2022-09-10T05:20:39.670Z,7.65
2022-09-10T05:23:06.209Z,7.95
2022-09-10T05:25:34.588Z,9.93
2022-09-10T05:28:01.649Z,11.35
2022-09-10T05:30:32.965Z,9.68
2022-09-10T05:33:01.347Z,9.45
2022-09-10T05:35:28.912Z,9.25
2022-09-10T05:37:57.685Z,9.20
2022-09-10T05:40:25.499Z,9.50
2022-09-10T05:42:53.059Z,11.15
2022-09-10T05:45:20.344Z,8.57
2022-09-10T05:47:47.629Z,5.45
2022-09-10T05:50:14.652Z,8.15
2022-09-10T05:52:41.375Z,7.50
2022-09-10T05:55:08.384Z,7.35
2022-09-10T05:57:35.543Z,8.90
2022-09-10T06:00:05.167Z,8.35
2022-09-10T06:02:31.808Z,6.20
2022-09-10T06:04:58.634Z,6.57
2022-09-10T06:07:25.234Z,9.32
2022-09-10T06:09:51.824Z,8.88
2022-09-10T06:12:18.849Z,5.35
2022-09-10T06:14:45.497Z,7.45
2022-09-10T06:17:12.540Z,5.85
2022-09-10T06:19:39.968Z,5.85
2022-09-10T06:22:06.497Z,5.07
2022-09-10T06:24:33.023Z,6.55
2022-09-10T06:26:59.572Z,8.13
2022-09-10T06:29:26.088Z,7.00
2022-09-10T06:31:52.678Z,8.25
2022-09-10T06:34:19.503Z,6.40
2022-09-10T06:36:48.055Z,5.88
2022-09-10T06:39:14.594Z,8.35
2022-09-10T06:41:44.272Z,5.00
2022-09-10T06:44:13.397Z,7.85
2022-09-10T06:49:29.736Z,7.05
2022-09-10T06:51:56.537Z,6.93
2022-09-10T06:54:23.117Z,5.03
2022-09-10T06:56:49.718Z,7.88
2022-09-10T06:59:18.290Z,5.55
2022-09-10T07:01:44.947Z,4.10
2022-09-10T07:04:11.484Z,6.20
2022-09-10T07:06:38.362Z,8.95
2022-09-10T07:09:05.268Z,9.05
2022-09-10T07:11:32.195Z,6.50
2022-09-10T07:14:00.209Z,8.15
2022-09-10T07:16:28.297Z,7.95
2022-09-10T07:18:57.970Z,5.18
2022-09-10T07:21:27.322Z,6.45
2022-09-10T07:23:57.704Z,11.32
2022-09-10T07:26:24.877Z,9.68
2022-09-10T07:28:52.230Z,9.77
2022-09-10T07:31:22.474Z,8.65
2022-09-10T07:33:49.923Z,6.25
2022-09-10T07:36:17.720Z,4.85
2022-09-10T07:38:44.692Z,6.90
2022-09-10T07:41:13.993Z,7.45
2022-09-10T07:43:41.837Z,6.78
2022-09-10T07:46:14.109Z,5.55
2022-09-10T07:48:41.585Z,10.73
2022-09-10T07:51:11.203Z,6.95
2022-09-10T07:53:38.745Z,7.72
2022-09-10T07:56:07.425Z,5.78
2022-09-10T07:58:36.034Z,6.65
2022-09-10T08:01:09.175Z,7.85
2022-09-10T08:03:35.756Z,7.57
2022-09-10T08:06:03.333Z,8.07
2022-09-10T08:08:31.851Z,6.95
2022-09-10T08:13:45.500Z,9.45
2022-09-10T08:16:15.207Z,5.85
2022-09-10T08:21:10.804Z,8.43
2022-09-10T08:23:39.723Z,7.75
2022-09-10T08:26:08.172Z,8.50
2022-09-10T08:28:36.001Z,6.40
2022-09-10T08:31:07.763Z,8.40
2022-09-10T08:33:36.438Z,9.25
2022-09-10T08:36:05.729Z,12.77
2022-09-10T08:38:35.111Z,5.88
2022-09-10T08:41:08.206Z,5.22
2022-09-10T08:46:23.978Z,7.25
2022-09-10T08:48:58.966Z,11.07
2022-09-10T08:51:30.033Z,7.70
2022-09-10T08:54:03.097Z,9.07
2022-09-10T08:56:31.260Z,10.38
2022-09-10T09:01:41.055Z,8.20
2022-09-10T09:04:20.808Z,11.27
2022-09-10T09:06:52.438Z,8.35
2022-09-10T09:09:19.108Z,6.55
2022-09-10T09:14:45.273Z,7.43
2022-09-10T09:25:32.945Z,8.52
2022-09-10T09:27:59.758Z,4.35
2022-09-10T09:30:33.779Z,6.07
2022-09-10T09:33:12.460Z,3.90
2022-09-10T09:41:07.864Z,4.95
2022-09-10T09:46:31.106Z,7.97
2022-09-10T09:49:00.126Z,4.80
2022-09-10T09:51:30.659Z,8.63
2022-09-10T09:54:34.506Z,7.38
2022-09-10T09:56:50.008Z,4.80
2022-09-10T10:01:52.982Z,6.25
2022-09-10T10:04:23.349Z,7.97
2022-09-10T10:06:59.928Z,3.90
2022-09-10T10:09:29.810Z,5.00
2022-09-10T10:22:44.155Z,4.50
2022-09-10T10:25:38.351Z,4.43
2022-09-10T10:28:26.318Z,5.72
2022-09-10T10:30:56.602Z,6.90
2022-09-10T10:33:28.613Z,4.43
2022-09-10T10:36:18.278Z,4.10
2022-09-10T10:38:53.325Z,3.25
2022-09-10T10:41:59.714Z,5.43
2022-09-10T10:55:47.638Z,4.32
2022-09-10T11:06:20.412Z,3.53
2022-09-10T11:08:57.612Z,3.78
2022-09-10T11:11:33.847Z,2.63
2022-09-10T11:14:40.201Z,2.92
2022-09-10T11:45:55.150Z,7.28
2022-09-10T11:48:44.738Z,3.67
2022-09-10T11:51:19.133Z,5.97
2022-09-10T11:53:45.955Z,5.10
2022-09-10T12:07:11.038Z,3.25
2022-09-10T12:09:49.198Z,3.80
2022-09-10T12:17:42.596Z,3.88
2022-09-10T12:20:18.491Z,4.88
2022-09-10T12:27:57.694Z,3.88
2022-09-10T12:33:07.557Z,2.63
2022-09-10T12:38:50.427Z,2.75
2022-09-10T12:44:02.507Z,3.10
2022-09-10T12:46:31.370Z,3.20
2022-09-10T13:02:37.589Z,2.85
2022-09-10T13:05:19.354Z,2.55
2022-09-10T13:07:49.224Z,2.90
2022-09-10T13:10:27.191Z,5.80
2022-09-10T13:12:58.533Z,5.32
2022-09-10T13:15:28.152Z,2.97
2022-09-10T13:20:34.610Z,4.85
2022-09-10T13:25:37.022Z,5.28
2022-09-10T13:52:15.193Z,3.53
2022-09-10T13:54:47.542Z,3.25
2022-09-10T13:57:20.583Z,3.75
2022-09-10T13:59:51.648Z,3.42
2022-09-10T14:02:21.303Z,3.58
2022-09-10T14:04:48.222Z,5.25
2022-09-10T14:07:20.741Z,3.15
2022-09-10T14:09:50.414Z,5.53
2022-09-10T14:12:20.890Z,3.75
2022-09-10T14:14:53.289Z,3.58
2022-09-10T14:17:25.700Z,4.22
2022-09-10T14:19:59.263Z,3.78
2022-09-10T14:22:27.094Z,3.38
2022-09-10T14:24:59.931Z,4.10
2022-09-10T14:33:39.660Z,4.60
2022-09-10T14:44:28.296Z,2.78
2022-09-10T14:57:20.975Z,5.22
2022-09-10T14:59:47.640Z,6.57
2022-09-10T15:02:19.455Z,4.47
2022-09-10T15:04:46.145Z,2.83
2022-09-10T15:07:13.678Z,6.13
2022-09-10T15:09:41.021Z,4.72
2022-09-10T15:12:28.675Z,2.85
2022-09-10T15:14:57.154Z,3.30
2022-09-10T15:17:23.798Z,4.50
2022-09-10T15:19:50.610Z,3.88
2022-09-10T15:22:27.557Z,2.85
2022-09-10T15:25:11.459Z,4.20
2022-09-10T15:27:38.771Z,2.40
2022-09-10T15:30:06.618Z,2.80
2022-09-10T15:32:33.177Z,3.13
2022-09-10T15:34:59.822Z,3.85
2022-09-10T15:37:27.119Z,3.75
2022-09-10T15:39:53.815Z,5.47
2022-09-10T15:42:21.076Z,2.08
2022-09-10T15:44:47.670Z,3.97
2022-09-10T15:47:14.246Z,3.92
2022-09-10T15:49:40.783Z,2.95
2022-09-10T15:52:07.304Z,2.83
2022-09-10T15:54:33.956Z,3.17
2022-09-10T15:57:01.132Z,3.28
2022-09-10T15:59:28.452Z,3.63
2022-09-10T16:01:55.030Z,4.88
2022-09-10T16:04:21.581Z,3.42
2022-09-10T16:06:48.121Z,3.25
2022-09-10T16:09:14.879Z,2.03
2022-09-10T16:11:43.125Z,2.20
2022-09-10T16:14:13.337Z,3.92
2022-09-10T16:16:41.013Z,2.53
2022-09-10T16:19:09.190Z,2.13
2022-09-10T16:21:37.612Z,2.30
2022-09-10T16:24:05.710Z,3.30
2022-09-10T16:26:37.145Z,0.93
2022-09-10T16:29:06.573Z,2.55
2022-09-10T16:34:04.764Z,3.67
2022-09-10T16:36:34.537Z,2.63
2022-09-10T16:39:02.709Z,2.90
2022-09-10T16:41:29.865Z,2.10
2022-09-10T16:43:58.445Z,2.20
2022-09-10T16:46:26.342Z,4.88
2022-09-10T16:48:54.349Z,3.50
2022-09-10T16:51:24.328Z,2.13
2022-09-10T16:53:57.100Z,3.28
2022-09-10T16:56:25.572Z,3.00
2022-09-10T16:58:52.670Z,3.55
2022-09-10T17:01:21.364Z,3.45
2022-09-10T17:03:49.946Z,2.58
2022-09-10T17:06:20.497Z,4.63
2022-09-10T17:08:47.094Z,3.28
2022-09-10T17:11:15.031Z,2.60
2022-09-10T17:13:41.602Z,2.70
2022-09-10T17:16:25.764Z,3.90
2022-09-10T17:21:37.187Z,3.70
2022-09-10T17:24:06.126Z,3.92
2022-09-10T17:26:34.212Z,4.90
2022-09-10T17:29:04.129Z,1.73
2022-09-10T17:31:31.250Z,3.75
2022-09-10T17:33:59.229Z,2.28
2022-09-10T17:36:26.798Z,2.15
2022-09-10T17:38:55.088Z,2.53
2022-09-10T17:41:23.223Z,2.00
2022-09-10T17:43:50.001Z,4.72
2022-09-10T17:46:19.028Z,6.30
2022-09-10T17:48:45.883Z,3.13
2022-09-10T17:51:15.053Z,3.45
2022-09-10T17:53:41.920Z,2.63
2022-09-10T17:56:11.557Z,2.05
2022-09-10T17:58:38.714Z,3.25
2022-09-10T18:01:08.708Z,4.57
2022-09-10T18:03:35.885Z,4.03
2022-09-10T18:06:04.895Z,4.03
2022-09-10T18:08:33.324Z,2.28
2022-09-10T18:13:39.009Z,1.63
2022-09-10T18:18:41.117Z,4.07
2022-09-10T18:21:18.110Z,2.92
2022-09-10T18:23:49.417Z,2.92
2022-09-10T18:26:19.316Z,4.63
2022-09-10T18:28:54.530Z,4.93
2022-09-10T18:31:22.185Z,6.47
2022-09-10T18:33:48.897Z,3.50
2022-09-10T18:36:18.402Z,3.65
2022-09-10T18:41:30.234Z,4.80
2022-09-10T18:43:59.138Z,5.22
2022-09-10T18:46:26.246Z,4.03
2022-09-10T18:48:53.510Z,3.65
2022-09-10T18:51:22.759Z,4.95
2022-09-10T18:53:53.864Z,3.95
2022-09-10T18:56:23.528Z,3.38
2022-09-10T18:58:51.987Z,3.60
2022-09-10T19:01:19.166Z,4.38
2022-09-10T19:03:47.822Z,4.53
2022-09-10T19:06:17.701Z,2.58
2022-09-10T19:08:50.411Z,5.30
2022-09-10T19:11:17.608Z,3.05
2022-09-10T19:13:48.936Z,4.88
2022-09-10T19:16:15.916Z,4.07
2022-09-10T19:18:43.668Z,3.38
2022-09-10T19:21:10.692Z,3.10
2022-09-10T19:23:37.350Z,3.38
2022-09-10T19:26:04.018Z,2.75
2022-09-10T19:28:33.597Z,2.92
2022-09-10T19:33:32.880Z,3.83
2022-09-10T19:36:03.561Z,3.88
2022-09-10T19:38:37.626Z,5.25
2022-09-10T19:41:08.303Z,5.43
2022-09-10T19:43:36.404Z,4.32
2022-09-10T19:46:04.659Z,3.80
2022-09-10T19:48:31.989Z,3.22
2022-09-10T19:50:59.140Z,3.60
2022-09-10T19:53:25.987Z,2.90
2022-09-10T19:55:52.989Z,3.35
2022-09-10T19:58:19.906Z,5.75
2022-09-10T20:00:47.447Z,3.72
2022-09-10T20:03:14.823Z,2.83
2022-09-10T20:05:42.710Z,3.47
2022-09-10T20:08:09.882Z,3.67
2022-09-10T20:10:38.114Z,3.75
2022-09-10T20:13:05.713Z,4.18
2022-09-10T20:15:32.216Z,3.72
2022-09-10T20:17:59.023Z,3.05
2022-09-10T20:20:25.612Z,3.67
2022-09-10T20:22:52.162Z,4.75
2022-09-10T20:25:18.731Z,3.55
2022-09-10T20:27:45.299Z,6.32
2022-09-10T20:30:11.954Z,3.42
2022-09-10T20:32:38.629Z,3.50
2022-09-10T20:35:05.655Z,3.72
2022-09-10T20:37:32.829Z,3.70
2022-09-10T20:40:00.016Z,3.08
2022-09-10T20:42:27.936Z,3.67
2022-09-10T20:44:55.514Z,3.40
2022-09-10T20:47:24.438Z,3.67
2022-09-10T20:49:50.949Z,5.07
2022-09-10T20:52:18.314Z,8.05
2022-09-10T20:54:44.821Z,3.85
2022-09-10T20:57:11.731Z,3.95
2022-09-10T20:59:38.768Z,4.93
2022-09-10T21:02:05.765Z,5.30
2022-09-10T21:04:33.017Z,6.35
2022-09-10T21:06:59.635Z,3.50
2022-09-10T21:09:26.241Z,4.43
2022-09-10T21:11:52.867Z,3.60
2022-09-10T21:14:19.458Z,3.80
2022-09-10T21:16:47.330Z,5.15
2022-09-10T21:19:17.393Z,3.47
2022-09-10T21:21:45.501Z,3.65
2022-09-10T21:24:14.976Z,6.28
2022-09-10T21:26:43.546Z,3.38
2022-09-10T21:29:13.948Z,3.92
2022-09-10T21:31:41.460Z,4.70
2022-09-10T21:34:08.838Z,4.47
2022-09-10T21:36:37.788Z,3.03
2022-09-10T21:39:07.571Z,5.65
2022-09-10T21:41:36.954Z,5.57
2022-09-10T21:44:07.909Z,3.97
2022-09-10T21:46:34.554Z,5.38
2022-09-10T21:49:02.396Z,2.78
2022-09-10T21:51:29.404Z,4.70
2022-09-10T21:53:56.891Z,5.03
2022-09-10T21:56:26.164Z,4.43
2022-09-10T21:58:53.708Z,3.75
2022-09-10T22:01:23.713Z,3.55
2022-09-10T22:03:52.656Z,3.70
2022-09-10T22:06:23.139Z,6.00
2022-09-10T22:08:53.121Z,3.60
2022-09-10T22:11:24.381Z,3.35
2022-09-10T22:13:54.487Z,6.18
2022-09-10T22:16:23.061Z,3.40
2022-09-10T22:18:50.581Z,3.85
2022-09-10T22:21:18.625Z,4.72
2022-09-10T22:23:45.172Z,3.95
2022-09-10T22:26:15.468Z,3.72
2022-09-10T22:28:43.020Z,6.65
2022-09-10T22:31:13.010Z,10.63
2022-09-10T22:33:41.934Z,6.15
2022-09-10T22:38:51.597Z,4.53
2022-09-10T22:41:19.317Z,2.95
2022-09-10T22:43:45.973Z,3.28
2022-09-10T22:46:12.985Z,4.53
2022-09-10T22:48:42.488Z,3.63
2022-09-10T22:51:13.380Z,5.30
2022-09-10T22:53:41.522Z,3.15
2022-09-10T22:56:09.167Z,2.67
2022-09-10T22:58:37.008Z,4.28
2022-09-10T23:01:06.573Z,2.72
2022-09-10T23:03:33.161Z,2.47
2022-09-10T23:08:47.880Z,4.20
2022-09-10T23:11:17.405Z,3.88
2022-09-10T23:13:45.977Z,3.42
2022-09-10T23:16:17.350Z,4.53
2022-09-10T23:18:48.686Z,2.72
2022-09-10T23:21:15.205Z,4.75
2022-09-10T23:23:45.597Z,5.57
2022-09-10T23:26:12.694Z,3.88
2022-09-10T23:28:39.778Z,28.98
2022-09-10T23:31:13.560Z,17.15
2022-09-10T23:33:42.126Z,13.77
2022-09-10T23:36:09.868Z,11.32
2022-09-10T23:38:36.448Z,8.20
2022-09-10T23:41:03.445Z,8.98
2022-09-10T23:43:30.189Z,9.95
2022-09-10T23:45:56.761Z,5.78
2022-09-10T23:48:24.585Z,4.75
2022-09-10T23:50:53.300Z,7.03
2022-09-10T23:53:21.198Z,7.28
2022-09-10T23:55:48.489Z,4.57
2022-09-10T23:58:17.072Z,5.38
